sensor_id;sensor_type;location;lat;lon;timestamp;P1;durP1;ratioP1;P2;durP2;ratioP2
12129;SDS011;6128;59.340;18.040;2023-04-25T00:01:44;4.60;;;2.27;;
12129;SDS011;6128;59.340;18.040;2023-04-25T00:04:12;1.90;;;1.80;;
12129;SDS011;6128;59.340;18.040;2023-04-25T00:06:39;2.73;;;2.27;;
12129;SDS011;6128;59.340;18.040;2023-04-25T00:09:06;2.33;;;2.13;;
12129;SDS011;6128;59.340;18.040;2023-04-25T00:11:35;2.40;;;2.20;;
12129;SDS011;6128;59.340;18.040;2023-04-25T00:14:04;1.90;;;1.80;;
12129;SDS011;6128;59.340;18.040;2023-04-25T00:16:31;2.33;;;2.23;;
12129;SDS011;6128;59.340;18.040;2023-04-25T00:18:59;2.30;;;2.10;;
12129;SDS011;6128;59.340;18.040;2023-04-25T00:21:28;2.67;;;2.47;;
12129;SDS011;6128;59.340;18.040;2023-04-25T00:23:56;5.23;;;2.70;;
12129;SDS011;6128;59.340;18.040;2023-04-25T00:26:24;2.27;;;2.07;;
12129;SDS011;6128;59.340;18.040;2023-04-25T00:28:51;2.70;;;2.33;;
12129;SDS011;6128;59.340;18.040;2023-04-25T00:31:19;2.47;;;2.27;;
12129;SDS011;6128;59.340;18.040;2023-04-25T00:33:47;2.50;;;2.30;;
12129;SDS011;6128;59.340;18.040;2023-04-25T00:36:14;3.10;;;2.37;;
12129;SDS011;6128;59.340;18.040;2023-04-25T00:38:42;2.77;;;2.23;;
12129;SDS011;6128;59.340;18.040;2023-04-25T00:41:09;3.33;;;2.20;;
12129;SDS011;6128;59.340;18.040;2023-04-25T00:43:36;2.93;;;2.13;;
12129;SDS011;6128;59.340;18.040;2023-04-25T00:46:04;2.50;;;2.27;;
12129;SDS011;6128;59.340;18.040;2023-04-25T00:48:32;2.40;;;2.10;;
12129;SDS011;6128;59.340;18.040;2023-04-25T00:50:59;2.33;;;2.13;;
12129;SDS011;6128;59.340;18.040;2023-04-25T00:53:27;3.00;;;2.33;;
12129;SDS011;6128;59.340;18.040;2023-04-25T00:55:57;2.20;;;1.90;;
12129;SDS011;6128;59.340;18.040;2023-04-25T00:58:24;2.53;;;2.10;;
12129;SDS011;6128;59.340;18.040;2023-04-25T01:00:52;2.23;;;2.00;;
12129;SDS011;6128;59.340;18.040;2023-04-25T01:03:19;2.27;;;2.03;;
12129;SDS011;6128;59.340;18.040;2023-04-25T01:05:48;2.50;;;2.30;;
12129;SDS011;6128;59.340;18.040;2023-04-25T01:08:15;2.57;;;2.37;;
12129;SDS011;6128;59.340;18.040;2023-04-25T01:10:42;2.67;;;2.47;;
12129;SDS011;6128;59.340;18.040;2023-04-25T01:13:09;3.57;;;2.40;;
12129;SDS011;6128;59.340;18.040;2023-04-25T01:15:37;2.23;;;2.03;;
12129;SDS011;6128;59.340;18.040;2023-04-25T01:18:04;2.53;;;2.27;;
12129;SDS011;6128;59.340;18.040;2023-04-25T01:20:32;2.70;;;2.50;;
12129;SDS011;6128;59.340;18.040;2023-04-25T01:23:01;2.67;;;2.20;;
12129;SDS011;6128;59.340;18.040;2023-04-25T01:25:29;6.47;;;3.30;;
12129;SDS011;6128;59.340;18.040;2023-04-25T01:27:56;3.63;;;3.10;;
12129;SDS011;6128;59.340;18.040;2023-04-25T01:30:24;5.20;;;3.50;;
12129;SDS011;6128;59.340;18.040;2023-04-25T01:32:53;3.37;;;3.03;;
12129;SDS011;6128;59.340;18.040;2023-04-25T01:35:22;3.63;;;3.33;;
12129;SDS011;6128;59.340;18.040;2023-04-25T01:37:50;3.17;;;2.87;;
12129;SDS011;6128;59.340;18.040;2023-04-25T01:40:19;3.47;;;3.13;;
12129;SDS011;6128;59.340;18.040;2023-04-25T01:42:47;4.30;;;3.30;;
12129;SDS011;6128;59.340;18.040;2023-04-25T01:45:15;3.50;;;3.20;;
12129;SDS011;6128;59.340;18.040;2023-04-25T01:47:43;3.83;;;3.23;;
12129;SDS011;6128;59.340;18.040;2023-04-25T01:50:14;5.23;;;3.10;;
12129;SDS011;6128;59.340;18.040;2023-04-25T01:52:41;3.70;;;3.30;;
12129;SDS011;6128;59.340;18.040;2023-04-25T01:55:09;4.10;;;3.10;;
12129;SDS011;6128;59.340;18.040;2023-04-25T01:57:38;2.73;;;2.53;;
12129;SDS011;6128;59.340;18.040;2023-04-25T02:00:05;3.40;;;2.50;;
12129;SDS011;6128;59.340;18.040;2023-04-25T02:02:34;2.83;;;2.50;;
12129;SDS011;6128;59.340;18.040;2023-04-25T02:05:01;2.80;;;2.60;;
12129;SDS011;6128;59.340;18.040;2023-04-25T02:07:28;3.93;;;2.90;;
12129;SDS011;6128;59.340;18.040;2023-04-25T02:09:55;2.70;;;2.30;;
12129;SDS011;6128;59.340;18.040;2023-04-25T02:12:22;3.17;;;2.27;;
12129;SDS011;6128;59.340;18.040;2023-04-25T02:14:52;2.60;;;2.40;;
12129;SDS011;6128;59.340;18.040;2023-04-25T02:17:19;2.27;;;2.07;;
12129;SDS011;6128;59.340;18.040;2023-04-25T02:19:47;2.33;;;2.10;;
12129;SDS011;6128;59.340;18.040;2023-04-25T02:22:14;2.53;;;2.10;;
12129;SDS011;6128;59.340;18.040;2023-04-25T02:24:41;2.00;;;1.80;;
12129;SDS011;6128;59.340;18.040;2023-04-25T02:27:08;1.70;;;1.60;;
12129;SDS011;6128;59.340;18.040;2023-04-25T02:29:35;1.90;;;1.70;;
12129;SDS011;6128;59.340;18.040;2023-04-25T02:32:04;1.63;;;1.50;;
12129;SDS011;6128;59.340;18.040;2023-04-25T02:34:31;1.60;;;1.33;;
12129;SDS011;6128;59.340;18.040;2023-04-25T02:36:58;1.87;;;1.77;;
12129;SDS011;6128;59.340;18.040;2023-04-25T02:39:25;2.50;;;1.57;;
12129;SDS011;6128;59.340;18.040;2023-04-25T02:41:52;1.43;;;1.33;;
12129;SDS011;6128;59.340;18.040;2023-04-25T02:44:19;1.40;;;1.30;;
12129;SDS011;6128;59.340;18.040;2023-04-25T02:46:47;1.30;;;1.20;;
12129;SDS011;6128;59.340;18.040;2023-04-25T02:49:15;2.03;;;1.17;;
12129;SDS011;6128;59.340;18.040;2023-04-25T02:51:42;1.10;;;1.10;;
12129;SDS011;6128;59.340;18.040;2023-04-25T02:54:09;0.90;;;0.90;;
12129;SDS011;6128;59.340;18.040;2023-04-25T02:56:36;1.43;;;1.00;;
12129;SDS011;6128;59.340;18.040;2023-04-25T02:59:04;1.00;;;0.90;;
12129;SDS011;6128;59.340;18.040;2023-04-25T03:01:31;2.00;;;1.27;;
12129;SDS011;6128;59.340;18.040;2023-04-25T03:04:15;1.03;;;1.00;;
12129;SDS011;6128;59.340;18.040;2023-04-25T03:07:35;1.10;;;1.00;;
12129;SDS011;6128;59.340;18.040;2023-04-25T03:10:09;1.27;;;0.80;;
12129;SDS011;6128;59.340;18.040;2023-04-25T03:12:37;0.90;;;0.90;;
12129;SDS011;6128;59.340;18.040;2023-04-25T03:15:05;0.90;;;0.90;;
12129;SDS011;6128;59.340;18.040;2023-04-25T03:17:32;0.70;;;0.70;;
12129;SDS011;6128;59.340;18.040;2023-04-25T03:20:01;0.77;;;0.77;;
12129;SDS011;6128;59.340;18.040;2023-04-25T03:22:30;0.80;;;0.80;;
12129;SDS011;6128;59.340;18.040;2023-04-25T03:24:57;1.93;;;0.70;;
12129;SDS011;6128;59.340;18.040;2023-04-25T03:27:24;0.97;;;0.73;;
12129;SDS011;6128;59.340;18.040;2023-04-25T03:29:52;0.60;;;0.60;;
12129;SDS011;6128;59.340;18.040;2023-04-25T03:32:19;0.60;;;0.60;;
12129;SDS011;6128;59.340;18.040;2023-04-25T03:34:46;0.67;;;0.67;;
12129;SDS011;6128;59.340;18.040;2023-04-25T03:37:14;0.77;;;0.77;;
12129;SDS011;6128;59.340;18.040;2023-04-25T03:39:41;0.70;;;0.70;;
12129;SDS011;6128;59.340;18.040;2023-04-25T03:42:08;0.70;;;0.70;;
12129;SDS011;6128;59.340;18.040;2023-04-25T03:44:35;0.80;;;0.80;;
12129;SDS011;6128;59.340;18.040;2023-04-25T03:47:03;0.80;;;0.80;;
12129;SDS011;6128;59.340;18.040;2023-04-25T03:49:30;0.70;;;0.70;;
12129;SDS011;6128;59.340;18.040;2023-04-25T03:51:57;1.43;;;0.70;;
12129;SDS011;6128;59.340;18.040;2023-04-25T03:54:26;0.87;;;0.80;;
12129;SDS011;6128;59.340;18.040;2023-04-25T03:56:53;0.80;;;0.80;;
12129;SDS011;6128;59.340;18.040;2023-04-25T03:59:21;0.60;;;0.60;;
12129;SDS011;6128;59.340;18.040;2023-04-25T04:01:48;0.70;;;0.70;;
12129;SDS011;6128;59.340;18.040;2023-04-25T04:04:15;0.70;;;0.70;;
12129;SDS011;6128;59.340;18.040;2023-04-25T04:06:42;3.43;;;0.70;;
12129;SDS011;6128;59.340;18.040;2023-04-25T04:09:09;0.80;;;0.80;;
12129;SDS011;6128;59.340;18.040;2023-04-25T04:11:39;1.20;;;0.73;;
12129;SDS011;6128;59.340;18.040;2023-04-25T04:14:06;0.90;;;0.90;;
12129;SDS011;6128;59.340;18.040;2023-04-25T04:16:35;0.80;;;0.73;;
12129;SDS011;6128;59.340;18.040;2023-04-25T04:19:02;1.00;;;1.00;;
12129;SDS011;6128;59.340;18.040;2023-04-25T04:21:29;1.30;;;1.20;;
12129;SDS011;6128;59.340;18.040;2023-04-25T04:23:57;1.30;;;1.20;;
12129;SDS011;6128;59.340;18.040;2023-04-25T04:26:25;1.20;;;1.10;;
12129;SDS011;6128;59.340;18.040;2023-04-25T04:28:53;1.10;;;1.10;;
12129;SDS011;6128;59.340;18.040;2023-04-25T04:31:20;1.43;;;1.33;;
12129;SDS011;6128;59.340;18.040;2023-04-25T04:33:48;2.20;;;1.60;;
12129;SDS011;6128;59.340;18.040;2023-04-25T04:36:16;3.80;;;1.50;;
12129;SDS011;6128;59.340;18.040;2023-04-25T04:38:45;1.70;;;1.60;;
12129;SDS011;6128;59.340;18.040;2023-04-25T04:41:12;2.03;;;1.50;;
12129;SDS011;6128;59.340;18.040;2023-04-25T04:43:39;1.50;;;1.40;;
12129;SDS011;6128;59.340;18.040;2023-04-25T04:46:08;2.57;;;1.40;;
12129;SDS011;6128;59.340;18.040;2023-04-25T04:48:37;2.50;;;1.90;;
12129;SDS011;6128;59.340;18.040;2023-04-25T04:51:05;1.77;;;1.67;;
12129;SDS011;6128;59.340;18.040;2023-04-25T04:53:32;1.70;;;1.60;;
12129;SDS011;6128;59.340;18.040;2023-04-25T04:55:59;3.57;;;2.37;;
12129;SDS011;6128;59.340;18.040;2023-04-25T04:58:26;2.80;;;1.83;;
12129;SDS011;6128;59.340;18.040;2023-04-25T05:00:55;2.40;;;2.20;;
12129;SDS011;6128;59.340;18.040;2023-04-25T05:03:23;2.10;;;2.00;;
12129;SDS011;6128;59.340;18.040;2023-04-25T05:05:50;2.20;;;2.10;;
12129;SDS011;6128;59.340;18.040;2023-04-25T05:08:17;3.00;;;2.10;;
12129;SDS011;6128;59.340;18.040;2023-04-25T05:10:44;2.73;;;2.30;;
12129;SDS011;6128;59.340;18.040;2023-04-25T05:13:12;3.87;;;2.80;;
12129;SDS011;6128;59.340;18.040;2023-04-25T05:15:38;3.17;;;2.53;;
12129;SDS011;6128;59.340;18.040;2023-04-25T05:18:06;4.00;;;2.33;;
12129;SDS011;6128;59.340;18.040;2023-04-25T05:20:34;5.43;;;2.70;;
12129;SDS011;6128;59.340;18.040;2023-04-25T05:23:01;3.73;;;2.83;;
12129;SDS011;6128;59.340;18.040;2023-04-25T05:25:29;3.10;;;2.80;;
12129;SDS011;6128;59.340;18.040;2023-04-25T05:27:56;3.93;;;3.30;;
12129;SDS011;6128;59.340;18.040;2023-04-25T05:30:23;4.50;;;3.13;;
12129;SDS011;6128;59.340;18.040;2023-04-25T05:32:50;6.17;;;2.77;;
12129;SDS011;6128;59.340;18.040;2023-04-25T05:35:17;4.73;;;3.10;;
12129;SDS011;6128;59.340;18.040;2023-04-25T05:37:46;3.33;;;2.70;;
12129;SDS011;6128;59.340;18.040;2023-04-25T05:40:13;4.33;;;2.83;;
12129;SDS011;6128;59.340;18.040;2023-04-25T05:42:40;3.23;;;3.00;;
12129;SDS011;6128;59.340;18.040;2023-04-25T05:45:08;3.20;;;2.90;;
12129;SDS011;6128;59.340;18.040;2023-04-25T05:47:35;4.37;;;2.90;;
12129;SDS011;6128;59.340;18.040;2023-04-25T05:50:03;4.03;;;2.63;;
12129;SDS011;6128;59.340;18.040;2023-04-25T05:52:30;3.63;;;3.03;;
12129;SDS011;6128;59.340;18.040;2023-04-25T05:54:59;3.53;;;2.73;;
12129;SDS011;6128;59.340;18.040;2023-04-25T05:57:26;3.00;;;2.50;;
12129;SDS011;6128;59.340;18.040;2023-04-25T05:59:54;2.77;;;2.40;;
12129;SDS011;6128;59.340;18.040;2023-04-25T06:02:21;3.47;;;2.30;;
12129;SDS011;6128;59.340;18.040;2023-04-25T06:04:48;2.17;;;1.97;;
12129;SDS011;6128;59.340;18.040;2023-04-25T06:07:16;3.83;;;2.23;;
12129;SDS011;6128;59.340;18.040;2023-04-25T06:09:43;2.33;;;2.13;;
12129;SDS011;6128;59.340;18.040;2023-04-25T06:12:12;2.13;;;1.90;;
12129;SDS011;6128;59.340;18.040;2023-04-25T06:14:39;1.93;;;1.83;;
12129;SDS011;6128;59.340;18.040;2023-04-25T06:17:07;2.57;;;1.80;;
12129;SDS011;6128;59.340;18.040;2023-04-25T06:19:34;2.70;;;1.57;;
12129;SDS011;6128;59.340;18.040;2023-04-25T06:22:02;1.83;;;1.73;;
12129;SDS011;6128;59.340;18.040;2023-04-25T06:24:29;1.73;;;1.60;;
12129;SDS011;6128;59.340;18.040;2023-04-25T06:26:56;1.60;;;1.20;;
12129;SDS011;6128;59.340;18.040;2023-04-25T06:29:25;2.00;;;1.90;;
12129;SDS011;6128;59.340;18.040;2023-04-25T06:31:52;1.60;;;1.43;;
12129;SDS011;6128;59.340;18.040;2023-04-25T06:34:20;1.20;;;1.10;;
12129;SDS011;6128;59.340;18.040;2023-04-25T06:36:47;1.80;;;1.37;;
12129;SDS011;6128;59.340;18.040;2023-04-25T06:39:14;2.30;;;1.60;;
12129;SDS011;6128;59.340;18.040;2023-04-25T06:41:41;1.67;;;1.43;;
12129;SDS011;6128;59.340;18.040;2023-04-25T06:44:08;1.87;;;1.73;;
12129;SDS011;6128;59.340;18.040;2023-04-25T06:46:37;1.60;;;1.50;;
12129;SDS011;6128;59.340;18.040;2023-04-25T06:49:04;2.63;;;1.43;;
12129;SDS011;6128;59.340;18.040;2023-04-25T06:51:31;2.20;;;1.40;;
12129;SDS011;6128;59.340;18.040;2023-04-25T06:53:58;1.40;;;1.30;;
12129;SDS011;6128;59.340;18.040;2023-04-25T06:56:25;1.53;;;1.43;;
12129;SDS011;6128;59.340;18.040;2023-04-25T06:58:54;3.70;;;2.80;;
12129;SDS011;6128;59.340;18.040;2023-04-25T07:01:21;2.17;;;1.40;;
12129;SDS011;6128;59.340;18.040;2023-04-25T07:03:50;1.57;;;1.47;;
12129;SDS011;6128;59.340;18.040;2023-04-25T07:06:17;1.30;;;1.20;;
12129;SDS011;6128;59.340;18.040;2023-04-25T07:08:44;1.77;;;1.47;;
12129;SDS011;6128;59.340;18.040;2023-04-25T07:11:12;1.60;;;1.40;;
12129;SDS011;6128;59.340;18.040;2023-04-25T07:13:39;1.60;;;1.50;;
12129;SDS011;6128;59.340;18.040;2023-04-25T07:16:06;1.73;;;1.63;;
12129;SDS011;6128;59.340;18.040;2023-04-25T07:18:33;1.70;;;1.60;;
12129;SDS011;6128;59.340;18.040;2023-04-25T07:21:02;1.67;;;1.57;;
12129;SDS011;6128;59.340;18.040;2023-04-25T07:23:30;2.87;;;1.70;;
12129;SDS011;6128;59.340;18.040;2023-04-25T07:25:57;1.77;;;1.43;;
12129;SDS011;6128;59.340;18.040;2023-04-25T07:28:26;1.77;;;1.67;;
12129;SDS011;6128;59.340;18.040;2023-04-25T07:30:53;1.70;;;1.60;;
12129;SDS011;6128;59.340;18.040;2023-04-25T07:33:21;1.47;;;1.37;;
12129;SDS011;6128;59.340;18.040;2023-04-25T07:35:48;2.10;;;1.90;;
12129;SDS011;6128;59.340;18.040;2023-04-25T07:38:17;1.60;;;1.50;;
12129;SDS011;6128;59.340;18.040;2023-04-25T07:40:43;1.80;;;1.70;;
12129;SDS011;6128;59.340;18.040;2023-04-25T07:43:11;1.90;;;1.80;;
12129;SDS011;6128;59.340;18.040;2023-04-25T07:45:41;1.87;;;1.53;;
12129;SDS011;6128;59.340;18.040;2023-04-25T07:48:08;2.03;;;1.70;;
12129;SDS011;6128;59.340;18.040;2023-04-25T07:50:36;1.73;;;1.63;;
12129;SDS011;6128;59.340;18.040;2023-04-25T07:53:03;1.80;;;1.70;;
12129;SDS011;6128;59.340;18.040;2023-04-25T07:55:32;2.53;;;2.33;;
12129;SDS011;6128;59.340;18.040;2023-04-25T07:57:59;2.73;;;1.80;;
12129;SDS011;6128;59.340;18.040;2023-04-25T08:00:26;4.07;;;2.30;;
12129;SDS011;6128;59.340;18.040;2023-04-25T08:02:54;2.20;;;2.00;;
12129;SDS011;6128;59.340;18.040;2023-04-25T08:05:21;2.33;;;1.87;;
12129;SDS011;6128;59.340;18.040;2023-04-25T08:07:50;2.63;;;1.77;;
12129;SDS011;6128;59.340;18.040;2023-04-25T08:10:17;2.53;;;1.63;;
12129;SDS011;6128;59.340;18.040;2023-04-25T08:12:46;1.90;;;1.80;;
12129;SDS011;6128;59.340;18.040;2023-04-25T08:15:13;1.73;;;1.60;;
12129;SDS011;6128;59.340;18.040;2023-04-25T08:17:40;2.30;;;1.90;;
12129;SDS011;6128;59.340;18.040;2023-04-25T08:20:09;2.13;;;1.93;;
12129;SDS011;6128;59.340;18.040;2023-04-25T08:22:37;2.50;;;1.50;;
12129;SDS011;6128;59.340;18.040;2023-04-25T08:25:06;2.30;;;1.60;;
12129;SDS011;6128;59.340;18.040;2023-04-25T08:27:33;2.10;;;1.90;;
12129;SDS011;6128;59.340;18.040;2023-04-25T08:30:02;3.17;;;2.30;;
12129;SDS011;6128;59.340;18.040;2023-04-25T08:32:30;3.63;;;3.00;;
12129;SDS011;6128;59.340;18.040;2023-04-25T08:34:58;2.67;;;2.37;;
12129;SDS011;6128;59.340;18.040;2023-04-25T08:37:26;3.30;;;2.77;;
12129;SDS011;6128;59.340;18.040;2023-04-25T08:39:53;2.40;;;2.20;;
12129;SDS011;6128;59.340;18.040;2023-04-25T08:42:21;2.97;;;2.67;;
12129;SDS011;6128;59.340;18.040;2023-04-25T08:44:49;2.90;;;2.70;;
12129;SDS011;6128;59.340;18.040;2023-04-25T08:47:21;3.10;;;2.83;;
12129;SDS011;6128;59.340;18.040;2023-04-25T08:49:49;3.53;;;3.23;;
12129;SDS011;6128;59.340;18.040;2023-04-25T08:52:21;3.97;;;3.67;;
12129;SDS011;6128;59.340;18.040;2023-04-25T08:54:49;3.53;;;3.23;;
12129;SDS011;6128;59.340;18.040;2023-04-25T08:57:19;4.20;;;3.80;;
12129;SDS011;6128;59.340;18.040;2023-04-25T08:59:47;4.10;;;3.70;;
12129;SDS011;6128;59.340;18.040;2023-04-25T09:02:15;4.23;;;3.53;;
12129;SDS011;6128;59.340;18.040;2023-04-25T09:04:47;4.60;;;4.23;;
12129;SDS011;6128;59.340;18.040;2023-04-25T09:07:14;4.80;;;4.40;;
12129;SDS011;6128;59.340;18.040;2023-04-25T09:09:46;4.50;;;4.10;;
12129;SDS011;6128;59.340;18.040;2023-04-25T09:12:13;5.17;;;4.67;;
12129;SDS011;6128;59.340;18.040;2023-04-25T09:14:40;6.17;;;5.67;;
12129;SDS011;6128;59.340;18.040;2023-04-25T09:17:09;6.67;;;5.97;;
12129;SDS011;6128;59.340;18.040;2023-04-25T09:19:36;6.10;;;5.30;;
12129;SDS011;6128;59.340;18.040;2023-04-25T09:22:07;6.33;;;5.80;;
12129;SDS011;6128;59.340;18.040;2023-04-25T09:24:35;6.23;;;5.73;;
12129;SDS011;6128;59.340;18.040;2023-04-25T09:27:03;6.10;;;5.50;;
12129;SDS011;6128;59.340;18.040;2023-04-25T09:29:31;6.23;;;5.73;;
12129;SDS011;6128;59.340;18.040;2023-04-25T09:32:14;6.57;;;5.97;;
12129;SDS011;6128;59.340;18.040;2023-04-25T09:34:45;5.73;;;5.23;;
12129;SDS011;6128;59.340;18.040;2023-04-25T09:37:19;6.20;;;5.70;;
12129;SDS011;6128;59.340;18.040;2023-04-25T09:39:48;6.00;;;5.50;;
12129;SDS011;6128;59.340;18.040;2023-04-25T09:42:16;5.80;;;5.30;;
12129;SDS011;6128;59.340;18.040;2023-04-25T09:44:43;5.90;;;5.50;;
12129;SDS011;6128;59.340;18.040;2023-04-25T09:47:12;5.50;;;5.00;;
12129;SDS011;6128;59.340;18.040;2023-04-25T09:49:42;5.50;;;4.73;;
12129;SDS011;6128;59.340;18.040;2023-04-25T09:52:13;5.03;;;4.63;;
12129;SDS011;6128;59.340;18.040;2023-04-25T09:54:42;4.90;;;4.50;;
12129;SDS011;6128;59.340;18.040;2023-04-25T09:57:11;5.17;;;4.07;;
12129;SDS011;6128;59.340;18.040;2023-04-25T09:59:43;3.63;;;3.33;;
12129;SDS011;6128;59.340;18.040;2023-04-25T10:02:11;4.43;;;4.03;;
12129;SDS011;6128;59.340;18.040;2023-04-25T10:04:39;4.10;;;3.80;;
12129;SDS011;6128;59.340;18.040;2023-04-25T10:07:08;3.33;;;3.13;;
12129;SDS011;6128;59.340;18.040;2023-04-25T10:09:36;3.20;;;3.00;;
12129;SDS011;6128;59.340;18.040;2023-04-25T10:12:07;3.17;;;2.97;;
12129;SDS011;6128;59.340;18.040;2023-04-25T10:14:35;3.47;;;3.27;;
12129;SDS011;6128;59.340;18.040;2023-04-25T10:17:02;3.17;;;2.97;;
12129;SDS011;6128;59.340;18.040;2023-04-25T10:19:29;4.17;;;3.57;;
12129;SDS011;6128;59.340;18.040;2023-04-25T10:22:00;4.17;;;3.77;;
12129;SDS011;6128;59.340;18.040;2023-04-25T10:24:34;4.60;;;4.20;;
12129;SDS011;6128;59.340;18.040;2023-04-25T10:27:02;5.23;;;4.20;;
12129;SDS011;6128;59.340;18.040;2023-04-25T10:29:32;5.97;;;4.90;;
12129;SDS011;6128;59.340;18.040;2023-04-25T10:31:59;5.80;;;5.23;;
12129;SDS011;6128;59.340;18.040;2023-04-25T10:34:37;4.97;;;4.53;;
12129;SDS011;6128;59.340;18.040;2023-04-25T10:37:06;7.97;;;4.60;;
12129;SDS011;6128;59.340;18.040;2023-04-25T10:39:36;4.87;;;4.40;;
12129;SDS011;6128;59.340;18.040;2023-04-25T10:42:06;5.93;;;4.90;;
12129;SDS011;6128;59.340;18.040;2023-04-25T10:44:36;6.23;;;4.77;;
12129;SDS011;6128;59.340;18.040;2023-04-25T10:47:03;5.63;;;4.43;;
12129;SDS011;6128;59.340;18.040;2023-04-25T10:49:34;5.43;;;4.77;;
12129;SDS011;6128;59.340;18.040;2023-04-25T10:52:15;6.03;;;5.27;;
12129;SDS011;6128;59.340;18.040;2023-04-25T10:54:52;5.40;;;5.00;;
12129;SDS011;6128;59.340;18.040;2023-04-25T10:57:27;8.27;;;5.43;;
12129;SDS011;6128;59.340;18.040;2023-04-25T10:59:59;6.77;;;5.00;;
12129;SDS011;6128;59.340;18.040;2023-04-25T11:02:40;5.00;;;4.40;;
12129;SDS011;6128;59.340;18.040;2023-04-25T11:05:10;5.53;;;4.33;;
12129;SDS011;6128;59.340;18.040;2023-04-25T11:07:44;7.63;;;4.70;;
12129;SDS011;6128;59.340;18.040;2023-04-25T11:10:17;4.83;;;4.17;;
12129;SDS011;6128;59.340;18.040;2023-04-25T11:12:45;8.13;;;4.97;;
12129;SDS011;6128;59.340;18.040;2023-04-25T11:15:14;4.77;;;4.30;;
12129;SDS011;6128;59.340;18.040;2023-04-25T11:17:41;5.63;;;4.30;;
12129;SDS011;6128;59.340;18.040;2023-04-25T11:20:11;6.57;;;4.50;;
12129;SDS011;6128;59.340;18.040;2023-04-25T11:22:40;5.03;;;4.60;;
12129;SDS011;6128;59.340;18.040;2023-04-25T11:25:10;5.00;;;4.50;;
12129;SDS011;6128;59.340;18.040;2023-04-25T11:27:49;10.83;;;5.00;;
12129;SDS011;6128;59.340;18.040;2023-04-25T11:30:19;5.20;;;4.70;;
12129;SDS011;6128;59.340;18.040;2023-04-25T11:32:47;7.97;;;5.20;;
12129;SDS011;6128;59.340;18.040;2023-04-25T11:35:15;4.30;;;4.00;;
12129;SDS011;6128;59.340;18.040;2023-04-25T11:37:43;5.97;;;4.60;;
12129;SDS011;6128;59.340;18.040;2023-04-25T11:40:10;9.73;;;5.67;;
12129;SDS011;6128;59.340;18.040;2023-04-25T11:42:38;15.40;;;5.83;;
12129;SDS011;6128;59.340;18.040;2023-04-25T11:45:06;7.33;;;5.57;;
12129;SDS011;6128;59.340;18.040;2023-04-25T11:47:36;9.63;;;4.60;;
12129;SDS011;6128;59.340;18.040;2023-04-25T11:50:04;7.50;;;5.10;;
12129;SDS011;6128;59.340;18.040;2023-04-25T11:52:39;23.97;;;6.37;;
12129;SDS011;6128;59.340;18.040;2023-04-25T11:55:08;8.17;;;6.33;;
12129;SDS011;6128;59.340;18.040;2023-04-25T11:57:37;7.00;;;4.87;;
12129;SDS011;6128;59.340;18.040;2023-04-25T12:00:06;6.07;;;4.63;;
12129;SDS011;6128;59.340;18.040;2023-04-25T12:02:37;11.77;;;6.10;;
12129;SDS011;6128;59.340;18.040;2023-04-25T12:05:08;5.00;;;4.30;;
12129;SDS011;6128;59.340;18.040;2023-04-25T12:07:36;6.50;;;4.23;;
12129;SDS011;6128;59.340;18.040;2023-04-25T12:10:04;8.33;;;4.50;;
12129;SDS011;6128;59.340;18.040;2023-04-25T12:12:33;5.87;;;4.07;;
12129;SDS011;6128;59.340;18.040;2023-04-25T12:15:09;4.50;;;3.90;;
12129;SDS011;6128;59.340;18.040;2023-04-25T12:17:44;6.10;;;4.10;;
12129;SDS011;6128;59.340;18.040;2023-04-25T12:20:13;5.20;;;4.07;;
12129;SDS011;6128;59.340;18.040;2023-04-25T12:22:41;31.90;;;6.93;;
12129;SDS011;6128;59.340;18.040;2023-04-25T12:25:11;6.43;;;4.10;;
12129;SDS011;6128;59.340;18.040;2023-04-25T12:27:39;8.67;;;4.97;;
12129;SDS011;6128;59.340;18.040;2023-04-25T12:30:07;9.03;;;4.10;;
12129;SDS011;6128;59.340;18.040;2023-04-25T12:32:36;5.67;;;3.57;;
12129;SDS011;6128;59.340;18.040;2023-04-25T12:35:05;4.17;;;3.57;;
12129;SDS011;6128;59.340;18.040;2023-04-25T12:37:33;14.43;;;4.37;;
12129;SDS011;6128;59.340;18.040;2023-04-25T12:40:00;4.17;;;3.80;;
12129;SDS011;6128;59.340;18.040;2023-04-25T12:42:28;7.27;;;4.27;;
12129;SDS011;6128;59.340;18.040;2023-04-25T12:44:56;6.77;;;4.37;;
12129;SDS011;6128;59.340;18.040;2023-04-25T12:47:23;9.63;;;4.60;;
12129;SDS011;6128;59.340;18.040;2023-04-25T12:49:50;10.67;;;4.30;;
12129;SDS011;6128;59.340;18.040;2023-04-25T12:52:18;5.03;;;3.83;;
12129;SDS011;6128;59.340;18.040;2023-04-25T12:54:45;12.90;;;4.80;;
12129;SDS011;6128;59.340;18.040;2023-04-25T12:57:13;6.17;;;3.70;;
12129;SDS011;6128;59.340;18.040;2023-04-25T12:59:40;7.30;;;4.50;;
12129;SDS011;6128;59.340;18.040;2023-04-25T13:02:07;10.70;;;4.10;;
12129;SDS011;6128;59.340;18.040;2023-04-25T13:04:34;6.87;;;3.60;;
12129;SDS011;6128;59.340;18.040;2023-04-25T13:07:01;7.00;;;3.33;;
12129;SDS011;6128;59.340;18.040;2023-04-25T13:09:32;5.70;;;3.87;;
12129;SDS011;6128;59.340;18.040;2023-04-25T13:11:59;7.67;;;4.23;;
12129;SDS011;6128;59.340;18.040;2023-04-25T13:14:26;3.70;;;3.40;;
12129;SDS011;6128;59.340;18.040;2023-04-25T13:16:54;4.93;;;3.53;;
12129;SDS011;6128;59.340;18.040;2023-04-25T13:19:21;4.07;;;3.20;;
12129;SDS011;6128;59.340;18.040;2023-04-25T13:21:48;6.17;;;3.50;;
12129;SDS011;6128;59.340;18.040;2023-04-25T13:24:15;3.60;;;3.23;;
12129;SDS011;6128;59.340;18.040;2023-04-25T13:26:43;3.30;;;3.00;;
12129;SDS011;6128;59.340;18.040;2023-04-25T13:29:10;3.40;;;3.10;;
12129;SDS011;6128;59.340;18.040;2023-04-25T13:31:38;3.80;;;3.50;;
12129;SDS011;6128;59.340;18.040;2023-04-25T13:34:05;6.30;;;3.33;;
12129;SDS011;6128;59.340;18.040;2023-04-25T13:36:33;5.50;;;3.30;;
12129;SDS011;6128;59.340;18.040;2023-04-25T13:39:00;5.83;;;3.23;;
12129;SDS011;6128;59.340;18.040;2023-04-25T13:41:29;5.93;;;3.07;;
12129;SDS011;6128;59.340;18.040;2023-04-25T13:43:57;3.43;;;3.20;;
12129;SDS011;6128;59.340;18.040;2023-04-25T13:46:26;3.77;;;2.80;;
12129;SDS011;6128;59.340;18.040;2023-04-25T13:48:53;2.77;;;2.57;;
12129;SDS011;6128;59.340;18.040;2023-04-25T13:51:20;2.97;;;2.57;;
12129;SDS011;6128;59.340;18.040;2023-04-25T13:53:47;3.60;;;2.73;;
12129;SDS011;6128;59.340;18.040;2023-04-25T13:56:15;3.43;;;3.07;;
12129;SDS011;6128;59.340;18.040;2023-04-25T13:58:44;3.63;;;3.30;;
12129;SDS011;6128;59.340;18.040;2023-04-25T14:01:13;4.47;;;2.73;;
12129;SDS011;6128;59.340;18.040;2023-04-25T14:03:40;3.97;;;3.00;;
12129;SDS011;6128;59.340;18.040;2023-04-25T14:06:07;3.67;;;3.37;;
12129;SDS011;6128;59.340;18.040;2023-04-25T14:08:36;4.53;;;3.27;;
12129;SDS011;6128;59.340;18.040;2023-04-25T14:11:03;3.93;;;3.53;;
12129;SDS011;6128;59.340;18.040;2023-04-25T14:13:30;4.37;;;3.97;;
12129;SDS011;6128;59.340;18.040;2023-04-25T14:15:57;7.17;;;3.80;;
12129;SDS011;6128;59.340;18.040;2023-04-25T14:18:26;6.53;;;4.87;;
12129;SDS011;6128;59.340;18.040;2023-04-25T14:20:53;7.83;;;5.20;;
12129;SDS011;6128;59.340;18.040;2023-04-25T14:23:20;4.40;;;3.83;;
12129;SDS011;6128;59.340;18.040;2023-04-25T14:25:47;4.37;;;4.00;;
12129;SDS011;6128;59.340;18.040;2023-04-25T14:28:14;6.90;;;4.37;;
12129;SDS011;6128;59.340;18.040;2023-04-25T14:30:41;5.63;;;4.33;;
12129;SDS011;6128;59.340;18.040;2023-04-25T14:33:09;5.90;;;4.40;;
12129;SDS011;6128;59.340;18.040;2023-04-25T14:35:37;7.03;;;4.83;;
12129;SDS011;6128;59.340;18.040;2023-04-25T14:38:05;7.40;;;4.93;;
12129;SDS011;6128;59.340;18.040;2023-04-25T14:40:32;7.00;;;4.77;;
12129;SDS011;6128;59.340;18.040;2023-04-25T14:43:00;5.57;;;4.50;;
12129;SDS011;6128;59.340;18.040;2023-04-25T14:45:27;6.70;;;4.17;;
12129;SDS011;6128;59.340;18.040;2023-04-25T14:47:54;12.10;;;5.30;;
12129;SDS011;6128;59.340;18.040;2023-04-25T14:50:21;5.03;;;4.33;;
12129;SDS011;6128;59.340;18.040;2023-04-25T14:52:50;4.90;;;4.33;;
12129;SDS011;6128;59.340;18.040;2023-04-25T14:55:17;4.80;;;4.30;;